createdAt,value
2018-03-02T00:01:27.977Z,-8.50
2018-03-02T00:03:55.520Z,-8.60
2018-03-02T00:06:23.141Z,-8.60
2018-03-02T00:08:50.649Z,-8.60
2018-03-02T00:11:18.198Z,-8.70
2018-03-02T00:13:45.722Z,-8.70
2018-03-02T00:16:13.308Z,-8.70
2018-03-02T00:18:40.817Z,-8.70
2018-03-02T00:21:09.092Z,-8.60
2018-03-02T00:23:37.366Z,-8.60
2018-03-02T00:26:04.893Z,-8.70
2018-03-02T00:28:32.443Z,-8.70
2018-03-02T00:30:59.954Z,-8.70
2018-03-02T00:33:28.250Z,-8.70
2018-03-02T00:35:55.922Z,-8.70
2018-03-02T00:38:23.435Z,-8.70
2018-03-02T00:40:51.830Z,-8.70
2018-03-02T00:43:19.369Z,-8.80
2018-03-02T00:45:46.865Z,-8.70
2018-03-02T04:15:46.682Z,-8.40
2018-03-02T04:18:14.208Z,-8.40
2018-03-02T04:20:41.730Z,-8.40
2018-03-02T04:23:09.271Z,-8.40
2018-03-02T04:25:36.789Z,-8.30
2018-03-02T04:28:04.288Z,-8.30
2018-03-02T04:30:31.913Z,-8.30
2018-03-02T04:32:59.438Z,-8.30
2018-03-02T04:35:26.965Z,-8.40
2018-03-02T04:37:54.446Z,-8.40
2018-03-02T04:40:22.024Z,-8.40
2018-03-02T04:42:50.466Z,-8.30
2018-03-02T04:45:17.962Z,-8.30
2018-03-02T04:47:45.617Z,-8.40
2018-03-02T04:50:13.134Z,-8.50
2018-03-02T04:52:40.669Z,-8.50
2018-03-02T04:55:08.177Z,-8.50
2018-03-02T04:57:36.490Z,-8.40
2018-03-02T05:00:04.006Z,-8.40
2018-03-02T05:02:31.720Z,-8.40
2018-03-02T05:04:59.374Z,-8.40
2018-03-02T05:07:26.886Z,-8.50
2018-03-02T05:09:54.402Z,-8.50
2018-03-02T05:12:21.919Z,-8.40
2018-03-02T05:14:49.506Z,-8.40
2018-03-02T05:17:17.024Z,-8.40
2018-03-02T05:19:44.531Z,-8.50
2018-03-02T05:22:12.172Z,-8.50
2018-03-02T05:24:40.369Z,-8.50
2018-03-02T05:27:07.891Z,-8.50
2018-03-02T05:29:35.421Z,-8.60
2018-03-02T05:32:03.030Z,-8.60
2018-03-02T05:34:30.530Z,-8.60
2018-03-02T05:36:58.362Z,-8.60
2018-03-02T05:39:25.866Z,-8.60
2018-03-02T05:41:53.559Z,-8.60
2018-03-02T05:44:45.019Z,-8.60
2018-03-02T05:58:44.500Z,-8.50
2018-03-02T06:01:14.269Z,-8.50
2018-03-02T06:03:41.792Z,-8.50
2018-03-02T06:06:09.332Z,-8.40
2018-03-02T06:08:36.870Z,-8.40
2018-03-02T06:11:04.453Z,-8.50
2018-03-02T06:13:31.959Z,-8.50
2018-03-02T06:15:59.487Z,-8.60
2018-03-02T06:18:27.260Z,-8.60
2018-03-02T06:20:54.887Z,-8.50
2018-03-02T06:23:22.410Z,-8.50
2018-03-02T06:25:49.943Z,-8.50
2018-03-02T06:28:17.521Z,-8.60
2018-03-02T06:30:45.084Z,-8.50
2018-03-02T06:33:12.882Z,-8.60
2018-03-02T06:35:40.443Z,-8.50
2018-03-02T06:38:07.980Z,-8.40
2018-03-02T06:40:36.559Z,-8.40
2018-03-02T06:43:05.464Z,-8.30
2018-03-02T06:45:33.023Z,-8.30
2018-03-02T06:48:01.081Z,-8.30
2018-03-02T06:50:28.708Z,-8.20
2018-03-02T06:52:56.243Z,-8.20
2018-03-02T06:55:23.785Z,-8.10
2018-03-02T06:57:51.385Z,-8.10
2018-03-02T07:00:19.413Z,-8.20
2018-03-02T07:02:46.967Z,-8.20
2018-03-02T07:05:14.568Z,-8.20
2018-03-02T07:07:42.878Z,-8.10
2018-03-02T07:10:10.436Z,-8.10
2018-03-02T07:12:37.995Z,-8.00
2018-03-02T07:15:05.514Z,-7.90
2018-03-02T07:17:33.851Z,-7.70
2018-03-02T07:20:01.376Z,-7.70
2018-03-02T07:22:29.674Z,-7.70
2018-03-02T07:24:57.214Z,-7.80
2018-03-02T07:27:24.738Z,-7.70
2018-03-02T07:29:52.270Z,-7.70
2018-03-02T07:32:19.779Z,-7.70
2018-03-02T07:34:47.289Z,-7.80
2018-03-02T07:37:14.834Z,-7.70
2018-03-02T07:39:42.333Z,-7.70
2018-03-02T07:42:09.863Z,-7.50
2018-03-02T07:44:37.384Z,-7.60
2018-03-02T07:47:04.912Z,-7.60
2018-03-02T07:49:32.581Z,-7.50
2018-03-02T07:52:00.081Z,-7.50
2018-03-02T07:54:27.576Z,-7.50
2018-03-02T07:56:55.126Z,-7.40
2018-03-02T07:59:22.709Z,-7.40
2018-03-02T08:01:50.424Z,-7.30
2018-03-02T08:04:18.092Z,-7.30
2018-03-02T08:06:45.669Z,-7.30
2018-03-02T08:09:13.200Z,-7.20
2018-03-02T08:11:41.681Z,-7.20
2018-03-02T08:14:09.207Z,-7.10
2018-03-02T08:16:36.848Z,-7.10
2018-03-02T08:19:04.382Z,-7.00
2018-03-02T08:21:31.898Z,-7.20
2018-03-02T08:23:59.855Z,-7.20
2018-03-02T08:26:27.402Z,-7.30
2018-03-02T08:28:55.167Z,-7.20
2018-03-02T08:31:23.503Z,-7.00
2018-03-02T08:33:51.119Z,-7.00
2018-03-02T08:36:18.752Z,-7.00
2018-03-02T08:38:46.376Z,-6.90
2018-03-02T08:41:13.920Z,-6.90
2018-03-02T08:43:41.752Z,-6.80
2018-03-02T08:46:10.065Z,-6.90
2018-03-02T08:48:37.689Z,-6.80
2018-03-02T08:51:05.390Z,-6.70
2018-03-02T08:53:32.928Z,-6.50
2018-03-02T08:56:00.597Z,-6.30
2018-03-02T08:58:28.105Z,-6.30
2018-03-02T09:00:55.743Z,-6.20
2018-03-02T09:03:23.255Z,-6.20
2018-03-02T09:05:50.790Z,-6.30
2018-03-02T09:08:18.354Z,-6.20
2018-03-02T09:10:45.855Z,-6.10
2018-03-02T09:13:13.647Z,-6.10
2018-03-02T09:15:41.318Z,-5.90
2018-03-02T09:18:08.919Z,-5.90
2018-03-02T09:20:36.626Z,-5.80
2018-03-02T09:23:04.376Z,-5.70
2018-03-02T09:25:31.891Z,-5.70
2018-03-02T09:28:00.175Z,-5.60
2018-03-02T09:30:27.733Z,-5.60
2018-03-02T09:32:56.030Z,-5.60
2018-03-02T09:35:23.880Z,-5.60
2018-03-02T09:37:52.207Z,-5.40
2018-03-02T09:40:19.714Z,-5.50
2018-03-02T09:42:48.216Z,-5.10
2018-03-02T09:45:15.758Z,-5.20
2018-03-02T09:47:44.140Z,-5.10
2018-03-02T09:50:11.774Z,-5.00
2018-03-02T09:52:39.283Z,-5.00
2018-03-02T09:55:06.786Z,-5.00
2018-03-02T09:57:35.089Z,-5.10
2018-03-02T10:00:03.518Z,-5.10
2018-03-02T10:02:31.042Z,-5.00
2018-03-02T10:04:58.600Z,-5.10
2018-03-02T10:07:26.413Z,-4.80
2018-03-02T10:09:54.036Z,-4.50
2018-03-02T10:12:22.034Z,-4.40
2018-03-02T10:14:49.564Z,-4.40
2018-03-02T10:17:17.238Z,-4.70
2018-03-02T10:19:46.839Z,-4.50
2018-03-02T10:22:14.503Z,-4.40
2018-03-02T10:24:42.025Z,-4.20
2018-03-02T10:27:09.606Z,-4.00
2018-03-02T10:29:37.390Z,-3.80
2018-03-02T10:32:05.056Z,-3.80
2018-03-02T10:34:32.786Z,-3.80
2018-03-02T10:37:00.902Z,-4.10
2018-03-02T10:39:28.428Z,-4.10
2018-03-02T10:41:55.957Z,-4.30
2018-03-02T10:44:23.486Z,-4.00
2018-03-02T10:46:51.186Z,-3.80
2018-03-02T10:49:18.779Z,-3.20
2018-03-02T10:51:46.294Z,-2.90
2018-03-02T10:54:14.648Z,-2.70
2018-03-02T10:56:42.303Z,-2.70
2018-03-02T10:59:11.294Z,-2.80
2018-03-02T11:01:44.377Z,-2.80
2018-03-02T11:04:18.515Z,-2.40
2018-03-02T11:06:46.238Z,-2.30
2018-03-02T11:09:13.796Z,-2.20
2018-03-02T11:11:41.317Z,-2.10
2018-03-02T11:14:08.888Z,-2.00
2018-03-02T11:16:36.462Z,-1.90
2018-03-02T11:19:04.014Z,-1.60
2018-03-02T11:21:31.558Z,-1.60
2018-03-02T11:23:59.081Z,-1.30
2018-03-02T11:26:26.629Z,-1.40
2018-03-02T11:28:54.142Z,-1.10
2018-03-02T11:31:22.426Z,-0.80
2018-03-02T11:33:49.950Z,-0.80
2018-03-02T11:36:18.374Z,-0.40
2018-03-02T11:38:45.921Z,-0.40
2018-03-02T11:41:13.465Z,-0.80
2018-03-02T11:43:41.068Z,-0.60
2018-03-02T11:46:08.624Z,-0.80
2018-03-02T11:48:37.646Z,-0.40
2018-03-02T11:51:05.159Z,0.30
2018-03-02T11:53:33.035Z,0.90
2018-03-02T11:56:00.541Z,0.80
2018-03-02T11:58:28.280Z,0.90
2018-03-02T12:00:56.038Z,0.60
2018-03-02T12:03:23.566Z,0.90
2018-03-02T12:05:51.083Z,0.50
2018-03-02T12:08:18.588Z,0.40
2018-03-02T12:10:46.122Z,0.40
2018-03-02T12:13:14.510Z,0.40
2018-03-02T12:15:42.117Z,0.40
2018-03-02T12:18:09.833Z,0.50
2018-03-02T12:20:37.339Z,0.50
2018-03-02T12:23:04.861Z,0.80
2018-03-02T12:25:32.365Z,0.60
2018-03-02T12:27:59.979Z,0.30
2018-03-02T12:30:27.649Z,0.20
2018-03-02T12:32:55.165Z,0.00
2018-03-02T12:35:22.671Z,-0.50
2018-03-02T12:37:50.183Z,-0.70
2018-03-02T12:40:17.796Z,-0.20
2018-03-02T12:42:45.311Z,-0.20
2018-03-02T12:45:12.872Z,0.20
2018-03-02T12:47:40.534Z,0.40
2018-03-02T12:50:08.830Z,0.80
2018-03-02T12:52:36.323Z,0.80
2018-03-02T12:55:03.909Z,0.70
2018-03-02T12:57:31.377Z,0.90
2018-03-02T12:59:59.134Z,1.20
2018-03-02T13:02:26.643Z,1.40
2018-03-02T13:04:54.167Z,0.60
2018-03-02T13:07:21.690Z,0.50
2018-03-02T13:09:49.234Z,0.90
2018-03-02T13:12:16.877Z,1.10
2018-03-02T13:14:44.437Z,1.30
2018-03-02T13:17:12.930Z,1.40
2018-03-02T13:19:40.442Z,1.50
2018-03-02T13:25:09.121Z,0.50
2018-03-02T13:27:48.494Z,0.10
2018-03-02T13:30:15.985Z,0.20
2018-03-02T13:32:55.336Z,0.60
2018-03-02T13:35:22.954Z,0.40
2018-03-02T13:37:50.462Z,0.10
2018-03-02T13:40:29.801Z,0.00
2018-03-02T13:42:57.342Z,0.00
2018-03-02T13:45:24.842Z,-0.40
2018-03-02T13:51:06.130Z,-0.70
2018-03-02T13:53:33.703Z,-0.60
2018-03-02T13:56:01.242Z,-0.70
2018-03-02T13:58:28.843Z,-0.50
2018-03-02T14:00:57.114Z,0.10
2018-03-02T14:03:37.120Z,0.30
2018-03-02T14:06:04.973Z,0.30
2018-03-02T14:08:32.515Z,0.10
2018-03-02T14:11:02.392Z,0.00
2018-03-02T14:13:29.885Z,0.00
2018-03-02T14:15:57.408Z,-0.10
2018-03-02T14:18:24.903Z,-0.20
2018-03-02T14:20:52.451Z,-0.10
2018-03-02T14:23:19.991Z,0.00
2018-03-02T14:25:47.516Z,-0.10
2018-03-02T14:28:15.032Z,-0.10
2018-03-02T14:30:42.603Z,-0.30
2018-03-02T14:33:10.195Z,-0.40
2018-03-02T14:35:37.710Z,-0.40
2018-03-02T14:38:06.128Z,-0.40
2018-03-02T14:40:33.784Z,-0.40
2018-03-02T14:43:01.306Z,-0.40
2018-03-02T14:45:29.709Z,-0.30
2018-03-02T14:47:57.278Z,-0.30
2018-03-02T14:50:24.939Z,-0.10
2018-03-02T14:52:52.623Z,-0.30
2018-03-02T14:55:20.170Z,-0.40
2018-03-02T14:57:47.732Z,-0.40
2018-03-02T15:00:15.242Z,-0.50
2018-03-02T15:02:42.980Z,-0.70
2018-03-02T15:05:10.573Z,-0.80
2018-03-02T15:07:38.101Z,-0.80
2018-03-02T15:10:05.627Z,-0.80
2018-03-02T15:12:33.139Z,-0.80
2018-03-02T15:15:00.664Z,-0.90
2018-03-02T15:17:28.162Z,-1.00
2018-03-02T15:19:55.686Z,-1.00
2018-03-02T15:22:23.236Z,-1.10
2018-03-02T15:24:50.782Z,-1.00
2018-03-02T15:27:18.333Z,-0.90
2018-03-02T15:29:46.056Z,-0.80
2018-03-02T15:32:14.344Z,-1.10
2018-03-02T15:34:41.886Z,-1.10
2018-03-02T15:37:10.062Z,-1.10
2018-03-02T15:39:37.728Z,-1.20
2018-03-02T15:42:05.374Z,-1.40
2018-03-02T15:44:33.662Z,-1.30
2018-03-02T15:47:01.208Z,-1.30
2018-03-02T15:49:28.842Z,-1.20
2018-03-02T15:51:56.419Z,-1.20
2018-03-02T15:54:23.932Z,-1.20
2018-03-02T15:56:51.473Z,-1.10
2018-03-02T15:59:19.059Z,-1.10
2018-03-02T16:01:46.619Z,-1.10
2018-03-02T16:07:22.135Z,-1.40
2018-03-02T16:09:49.677Z,-1.50
2018-03-02T16:12:17.184Z,-1.60
2018-03-02T16:14:44.735Z,-1.50
2018-03-02T16:17:12.235Z,-1.70
2018-03-02T16:19:39.766Z,-1.50
2018-03-02T16:22:07.312Z,-1.70
2018-03-02T16:24:35.739Z,-1.70
2018-03-02T16:27:03.334Z,-1.70
2018-03-02T16:29:30.863Z,-1.70
2018-03-02T16:31:58.399Z,-1.80
2018-03-02T16:34:25.910Z,-1.80
2018-03-02T16:36:54.207Z,-1.80
2018-03-02T16:39:21.757Z,-1.80
2018-03-02T16:41:49.431Z,-1.80
2018-03-02T16:44:17.011Z,-1.90
2018-03-02T16:46:44.546Z,-1.90
2018-03-02T16:49:12.055Z,-1.90
2018-03-02T16:51:39.628Z,-2.00
2018-03-02T16:54:07.219Z,-2.00
2018-03-02T16:56:34.843Z,-2.00
2018-03-02T16:59:02.348Z,-2.00
2018-03-02T17:01:29.859Z,-2.00
2018-03-02T17:03:57.403Z,-2.00
2018-03-02T17:06:24.944Z,-2.00
2018-03-02T17:08:52.475Z,-2.00
2018-03-02T17:20:10.121Z,-2.10
2018-03-02T17:22:37.682Z,-2.20
2018-03-02T17:25:05.267Z,-2.10
2018-03-02T17:27:32.802Z,-2.10
2018-03-02T17:30:00.377Z,-2.10
2018-03-02T17:32:27.905Z,-2.10
2018-03-02T17:34:55.491Z,-2.10
2018-03-02T17:37:22.994Z,-2.20
2018-03-02T17:39:50.546Z,-2.20
2018-03-02T17:42:18.021Z,-2.10
2018-03-02T17:44:45.614Z,-2.10
2018-03-02T17:47:13.256Z,-2.10
2018-03-02T17:49:40.780Z,-2.20
2018-03-02T17:52:08.291Z,-2.20
2018-03-02T17:54:35.865Z,-2.20
2018-03-02T17:57:03.408Z,-2.20
2018-03-02T17:59:30.955Z,-2.20
2018-03-02T18:01:58.514Z,-2.30
2018-03-02T18:04:26.014Z,-2.30
2018-03-02T18:06:54.822Z,-2.30
2018-03-02T18:09:23.112Z,-2.30
2018-03-02T18:11:50.678Z,-2.30
2018-03-02T18:14:18.205Z,-2.30
2018-03-02T18:16:46.498Z,-2.30
2018-03-02T18:19:14.765Z,-2.30
2018-03-02T18:21:42.282Z,-2.30
2018-03-02T18:24:09.817Z,-2.20
2018-03-02T18:26:37.373Z,-2.20
2018-03-02T18:29:04.888Z,-2.20
2018-03-02T18:31:32.408Z,-2.20
2018-03-02T18:33:59.887Z,-2.20
2018-03-02T18:36:27.423Z,-2.20
2018-03-02T18:38:54.960Z,-2.20
2018-03-02T18:41:22.488Z,-2.20
2018-03-02T18:43:49.997Z,-2.20
2018-03-02T18:46:17.512Z,-2.20
2018-03-02T18:48:45.821Z,-2.20
2018-03-02T18:51:13.361Z,-2.20
2018-03-02T18:53:41.749Z,-2.30
2018-03-02T18:56:09.393Z,-2.30
2018-03-02T18:58:37.157Z,-2.30
2018-03-02T19:01:09.019Z,-2.30
2018-03-02T19:03:36.576Z,-2.30
2018-03-02T19:06:04.894Z,-2.30
2018-03-02T19:08:32.572Z,-2.30
2018-03-02T19:11:00.672Z,-2.20
2018-03-02T19:13:28.228Z,-2.20
2018-03-02T19:15:55.859Z,-2.20
2018-03-02T19:18:24.838Z,-2.20
2018-03-02T19:20:52.514Z,-2.20
2018-03-02T19:23:22.305Z,-2.20
2018-03-02T19:25:50.136Z,-2.20
2018-03-02T19:28:22.083Z,-2.10
2018-03-02T19:30:52.418Z,-2.10
2018-03-02T19:33:20.025Z,-2.10
2018-03-02T19:35:47.830Z,-2.10
2018-03-02T19:38:15.725Z,-2.10
2018-03-02T19:40:43.251Z,-2.20
2018-03-02T19:43:10.754Z,-2.20
2018-03-02T19:45:38.378Z,-2.20
2018-03-02T19:48:06.202Z,-2.30
2018-03-02T19:50:35.186Z,-2.30
2018-03-02T19:53:02.776Z,-2.20
2018-03-02T19:55:30.713Z,-2.20
2018-03-02T19:57:58.470Z,-2.20
2018-03-02T20:00:27.185Z,-2.20
2018-03-02T20:02:55.111Z,-2.20
2018-03-02T20:05:22.676Z,-2.20
2018-03-02T20:07:50.199Z,-2.20
2018-03-02T20:10:18.494Z,-2.10
2018-03-02T20:12:46.807Z,-2.10
2018-03-02T20:15:14.431Z,-2.20
2018-03-02T20:17:42.034Z,-2.20
2018-03-02T20:20:09.956Z,-2.20
2018-03-02T20:22:38.310Z,-2.20
2018-03-02T20:25:06.155Z,-2.20
2018-03-02T20:27:33.729Z,-2.20
2018-03-02T20:30:01.288Z,-2.20
2018-03-02T20:32:29.638Z,-2.20
2018-03-02T20:34:57.187Z,-2.20
2018-03-02T20:37:25.494Z,-2.10
2018-03-02T20:39:53.221Z,-2.10
2018-03-02T20:42:20.763Z,-2.10
2018-03-02T20:44:48.374Z,-2.10
2018-03-02T20:47:15.974Z,-2.10
2018-03-02T20:49:43.478Z,-2.10
2018-03-02T20:52:11.001Z,-2.10
2018-03-02T20:54:38.535Z,-2.10
2018-03-02T20:57:06.044Z,-2.10
2018-03-02T20:59:33.592Z,-2.10
2018-03-02T21:02:01.977Z,-2.10
2018-03-02T21:04:29.676Z,-2.10
2018-03-02T21:06:57.233Z,-2.20
2018-03-02T21:09:24.760Z,-2.20
2018-03-02T21:11:53.124Z,-2.20
2018-03-02T21:14:20.618Z,-2.20
2018-03-02T21:16:48.165Z,-2.20
2018-03-02T21:19:15.699Z,-2.30
2018-03-02T21:21:43.304Z,-2.30
2018-03-02T21:24:10.817Z,-2.40
2018-03-02T21:30:12.433Z,-2.50
2018-03-02T21:32:39.966Z,-2.50
2018-03-02T21:35:07.507Z,-2.50
2018-03-02T21:37:35.079Z,-2.50
2018-03-02T21:40:02.828Z,-2.50
2018-03-02T21:42:30.342Z,-2.50
2018-03-02T21:44:57.863Z,-2.50
2018-03-02T21:47:25.537Z,-2.50
2018-03-02T21:49:53.079Z,-2.50
2018-03-02T21:52:21.561Z,-2.50
2018-03-02T21:54:49.165Z,-2.50
2018-03-02T21:57:16.672Z,-2.50
2018-03-02T21:59:44.451Z,-2.50
2018-03-02T22:15:00.380Z,-2.40
2018-03-02T22:17:27.903Z,-2.40
2018-03-02T22:19:55.414Z,-2.40
2018-03-02T22:22:23.038Z,-2.40
2018-03-02T22:24:50.691Z,-2.40
2018-03-02T22:27:18.222Z,-2.40
2018-03-02T22:29:45.740Z,-2.40
2018-03-02T22:32:13.245Z,-2.40
2018-03-02T22:34:40.765Z,-2.40
2018-03-02T22:37:08.357Z,-2.40
2018-03-02T22:39:35.928Z,-2.40
2018-03-02T22:42:07.368Z,-2.40
2018-03-02T22:44:34.961Z,-2.40
2018-03-02T22:47:03.288Z,-2.40
2018-03-02T22:49:30.855Z,-2.40
2018-03-02T22:51:58.378Z,-2.50
2018-03-02T22:54:26.713Z,-2.50
2018-03-02T22:56:54.292Z,-2.50
2018-03-02T22:59:21.842Z,-2.50
2018-03-02T23:01:49.343Z,-2.50
2018-03-02T23:04:17.769Z,-2.50
2018-03-02T23:06:45.389Z,-2.60
2018-03-02T23:09:13.073Z,-2.60
2018-03-02T23:11:40.558Z,-2.60
2018-03-02T23:14:08.425Z,-2.60
2018-03-02T23:16:35.932Z,-2.60
2018-03-02T23:19:03.444Z,-2.60
2018-03-02T23:21:30.966Z,-2.50
2018-03-02T23:23:58.537Z,-2.50
2018-03-02T23:26:26.086Z,-2.50
2018-03-02T23:28:53.595Z,-2.50
2018-03-02T23:31:21.185Z,-2.50
2018-03-02T23:33:48.761Z,-2.50
2018-03-02T23:36:16.367Z,-2.50
2018-03-02T23:38:43.871Z,-2.50
2018-03-02T23:41:11.552Z,-2.50
2018-03-02T23:43:39.191Z,-2.50
2018-03-02T23:46:06.729Z,-2.50
2018-03-02T23:48:34.234Z,-2.50
2018-03-02T23:51:01.894Z,-2.50
2018-03-02T23:53:29.400Z,-2.50
2018-03-02T23:55:56.941Z,-2.50
2018-03-02T23:58:24.469Z,-2.50
